Time;durP1;ratioP1;P1;durP2;ratioP2;P2;SDS_P1;SDS_P2;PMS_P1;PMS_P2;Temp;Humidity;BMP_temperature;BMP_pressure;BME280_temperature;BME280_humidity;BME280_pressure;Samples;Min_cycle;Max_cycle;Signal;HPM_P1;HPM_P2
2021/06/10 00:00:15;;;;;;;7.35;5.22;;;20.40;90.50;;;;;;5043224;28;20041;-80
2021/06/10 00:02:41;;;;;;;8.00;6.43;;;20.40;90.40;;;;;;5048429;28;20068;-81
2021/06/10 00:05:09;;;;;;;6.00;5.35;;;20.40;90.20;;;;;;5044439;28;20055;-80
2021/06/10 00:07:34;;;;;;;10.20;6.28;;;20.50;90.20;;;;;;5041777;28;20037;-80
2021/06/10 00:10:00;;;;;;;6.07;5.47;;;20.50;90.20;;;;;;5043244;28;20128;-80
2021/06/10 00:12:26;;;;;;;6.20;5.57;;;20.50;90.20;;;;;;5056497;28;20037;-80
2021/06/10 00:14:51;;;;;;;8.07;6.57;;;20.50;90.20;;;;;;5046348;28;20095;-80
2021/06/10 00:17:17;;;;;;;9.13;7.53;;;20.50;90.10;;;;;;5045623;28;20297;-81
2021/06/10 00:19:43;;;;;;;7.28;6.57;;;20.50;90.10;;;;;;5049660;28;20037;-81
2021/06/10 00:22:08;;;;;;;8.88;7.93;;;20.50;90.30;;;;;;5056816;28;20041;-80
2021/06/10 00:24:34;;;;;;;10.82;8.18;;;20.50;90.60;;;;;;5044652;28;20045;-81
2021/06/10 00:26:59;;;;;;;10.63;9.52;;;20.50;90.60;;;;;;5051237;28;20056;-80
2021/06/10 00:29:25;;;;;;;8.98;8.00;;;20.50;90.70;;;;;;5045167;28;20045;-80
2021/06/10 00:31:50;;;;;;;9.63;7.57;;;20.50;90.70;;;;;;5045606;28;20100;-80
2021/06/10 00:34:16;;;;;;;11.40;8.35;;;20.50;90.60;;;;;;5052179;28;20063;-80
2021/06/10 00:36:42;;;;;;;9.63;8.27;;;20.50;90.60;;;;;;5078708;28;20320;-82
2021/06/10 00:39:08;;;;;;;9.35;8.45;;;20.50;90.70;;;;;;5056074;28;20541;-80
2021/06/10 00:41:35;;;;;;;10.65;9.15;;;20.50;90.70;;;;;;5042747;28;20040;-79
2021/06/10 00:44:06;;;;;;;10.68;9.27;;;20.50;90.80;;;;;;5049229;28;20069;-80
2021/06/10 00:46:32;;;;;;;13.43;9.48;;;20.60;90.90;;;;;;5051206;28;20058;-80
2021/06/10 00:48:58;;;;;;;10.32;9.20;;;20.50;90.80;;;;;;5051240;28;20029;-79
2021/06/10 00:51:24;;;;;;;9.25;7.95;;;20.50;90.90;;;;;;5051492;28;20036;-79
2021/06/10 00:53:49;;;;;;;10.05;8.50;;;20.50;90.90;;;;;;5038434;28;20356;-80
2021/06/10 00:56:15;;;;;;;11.75;9.13;;;20.50;90.80;;;;;;5038897;28;20043;-80
2021/06/10 00:58:40;;;;;;;8.85;7.32;;;20.60;91.00;;;;;;5039717;28;20196;-80
2021/06/10 01:01:06;;;;;;;10.38;8.85;;;20.50;91.00;;;;;;5043030;28;20123;-80
2021/06/10 01:03:31;;;;;;;8.68;7.78;;;20.50;90.90;;;;;;5055620;28;20442;-80
2021/06/10 01:06:04;;;;;;;9.35;7.45;;;20.60;90.90;;;;;;5050440;28;20037;-79
2021/06/10 01:08:36;;;;;;;;;;;20.60;90.90;;;;;;5040552;28;20045;-81
2021/06/10 01:11:31;;;;;;;11.73;9.60;;;20.50;90.90;;;;;;5073934;28;19952;-80
2021/06/10 01:14:09;;;;;;;12.00;9.48;;;20.50;91.00;;;;;;5038927;28;20037;-80
2021/06/10 01:16:37;;;;;;;8.95;8.05;;;20.50;91.30;;;;;;5049460;28;20037;-80
2021/06/10 01:19:17;;;;;;;10.07;8.23;;;20.50;91.30;;;;;;5048263;28;20156;-81
2021/06/10 01:21:43;;;;;;;9.70;8.32;;;20.50;91.30;;;;;;5053817;28;20359;-81
2021/06/10 01:24:35;;;;;;;10.25;8.68;;;20.50;91.30;;;;;;5049002;28;20041;-80
2021/06/10 01:27:20;;;;;;;11.20;9.40;;;20.50;91.40;;;;;;5048576;28;20311;-82
2021/06/10 01:29:50;;;;;;;9.43;7.97;;;20.50;91.50;;;;;;5047978;28;20056;-81
2021/06/10 01:32:17;;;;;;;11.48;8.98;;;20.50;91.50;;;;;;5082088;28;20610;-82
2021/06/10 01:34:43;;;;;;;12.02;9.57;;;20.50;91.60;;;;;;5042642;28;20388;-82
2021/06/10 01:37:09;;;;;;;12.15;10.15;;;20.50;91.50;;;;;;5081692;28;20044;-81
2021/06/10 01:39:35;;;;;;;10.65;8.88;;;20.50;91.50;;;;;;5043380;28;20037;-81
2021/06/10 01:42:02;;;;;;;10.30;9.13;;;20.50;91.60;;;;;;5050905;28;20147;-81
2021/06/10 01:44:29;;;;;;;12.00;9.15;;;20.50;91.60;;;;;;5045511;28;20051;-82
2021/06/10 01:46:54;;;;;;;11.57;9.48;;;20.50;91.60;;;;;;5046802;28;20052;-81
2021/06/10 01:49:20;;;;;;;14.02;10.30;;;20.50;91.80;;;;;;5041403;28;20037;-81
2021/06/10 01:51:47;;;;;;;14.07;10.45;;;20.50;91.70;;;;;;5055505;28;20274;-80
2021/06/10 01:54:14;;;;;;;12.98;10.45;;;20.40;91.80;;;;;;5046391;28;20033;-80
2021/06/10 01:56:41;;;;;;;17.58;11.27;;;20.40;91.90;;;;;;5042462;28;20037;-81
2021/06/10 01:59:09;;;;;;;13.18;10.63;;;20.40;91.90;;;;;;5069820;28;20037;-80
2021/06/10 02:01:36;;;;;;;13.60;10.60;;;20.40;91.80;;;;;;5080203;28;20098;-80
2021/06/10 02:04:03;;;;;;;18.23;11.52;;;20.40;91.90;;;;;;5071182;28;20725;-81
2021/06/10 02:06:31;;;;;;;15.52;11.45;;;20.40;91.90;;;;;;5079705;28;20094;-81
2021/06/10 02:08:58;;;;;;;13.55;9.75;;;20.40;91.90;;;;;;5068589;28;20037;-81
2021/06/10 02:11:25;;;;;;;15.18;10.25;;;20.40;92.00;;;;;;5049687;28;20044;-80
2021/06/10 02:13:51;;;;;;;14.55;11.60;;;20.40;92.00;;;;;;5042903;28;20304;-80
2021/06/10 02:16:18;;;;;;;9.77;8.73;;;20.40;92.10;;;;;;5075662;28;20034;-80
2021/06/10 02:18:45;;;;;;;17.35;11.77;;;20.40;92.10;;;;;;5045745;28;20033;-80
2021/06/10 02:21:13;;;;;;;13.55;11.05;;;20.30;92.10;;;;;;5084318;28;20106;-80
2021/06/10 02:23:40;;;;;;;16.17;10.32;;;20.30;92.30;;;;;;5039012;28;20037;-81
2021/06/10 02:26:06;;;;;;;19.05;12.35;;;20.20;92.30;;;;;;5043295;28;20041;-79
2021/06/10 02:28:33;;;;;;;16.58;12.27;;;20.20;92.50;;;;;;5082007;28;20127;-79
2021/06/10 02:31:03;;;;;;;17.98;13.20;;;20.20;92.50;;;;;;5072969;28;20041;-79
2021/06/10 02:33:29;;;;;;;13.25;10.95;;;20.20;92.60;;;;;;5037253;28;20040;-79
2021/06/10 02:35:55;;;;;;;15.07;12.45;;;20.10;92.70;;;;;;5080163;28;20038;-79
2021/06/10 02:38:22;;;;;;;15.15;12.55;;;20.10;92.80;;;;;;5043144;28;20041;-79
2021/06/10 02:40:50;;;;;;;17.90;13.93;;;20.10;92.90;;;;;;5038684;28;20116;-79
2021/06/10 02:43:16;;;;;;;18.15;14.13;;;20.00;93.10;;;;;;5048598;28;20043;-81
2021/06/10 02:45:47;;;;;;;18.45;13.38;;;20.00;93.20;;;;;;5047074;28;20041;-80
2021/06/10 02:48:13;;;;;;;13.20;11.82;;;19.90;93.40;;;;;;5045662;28;20046;-79
2021/06/10 02:50:41;;;;;;;16.90;11.45;;;19.90;93.70;;;;;;5058433;28;20106;-79
2021/06/10 02:53:09;;;;;;;13.02;11.63;;;19.80;93.70;;;;;;5084090;28;20459;-80
2021/06/10 02:55:36;;;;;;;16.27;11.27;;;19.80;93.70;;;;;;5050344;28;20037;-80
2021/06/10 02:58:04;;;;;;;11.95;10.32;;;19.80;93.80;;;;;;5049187;28;20029;-80
2021/06/10 03:00:32;;;;;;;18.98;10.85;;;19.80;93.80;;;;;;5096043;28;20049;-79
2021/06/10 03:03:00;;;;;;;15.55;10.57;;;19.80;93.80;;;;;;5058089;28;20110;-80
2021/06/10 03:05:27;;;;;;;16.17;11.18;;;19.80;93.80;;;;;;5078351;28;20128;-80
2021/06/10 03:07:54;;;;;;;13.05;10.98;;;19.80;93.80;;;;;;5041488;28;20048;-80
2021/06/10 03:10:27;;;;;;;12.85;10.35;;;19.80;93.80;;;;;;5069529;28;20056;-80
2021/06/10 03:12:54;;;;;;;12.07;10.77;;;19.80;93.70;;;;;;5044993;28;20315;-81
2021/06/10 03:15:20;;;;;;;15.52;10.38;;;19.80;93.70;;;;;;5043183;28;20030;-81
2021/06/10 03:17:47;;;;;;;12.90;9.63;;;19.80;93.70;;;;;;5086281;28;20036;-80
2021/06/10 03:20:13;;;;;;;12.70;10.98;;;19.80;93.70;;;;;;5042928;28;20033;-81
2021/06/10 03:22:39;;;;;;;15.35;10.90;;;19.80;93.60;;;;;;5049507;28;20033;-81
2021/06/10 03:25:07;;;;;;;14.82;12.10;;;19.80;93.70;;;;;;5039823;28;20121;-81
2021/06/10 03:27:35;;;;;;;12.90;11.02;;;19.80;93.90;;;;;;5047060;28;20083;-81
2021/06/10 03:30:02;;;;;;;14.80;11.07;;;19.80;93.70;;;;;;5049426;28;20060;-81
2021/06/10 03:32:28;;;;;;;13.77;10.70;;;19.80;93.60;;;;;;5040132;28;20042;-81
2021/06/10 03:34:55;;;;;;;11.90;10.65;;;19.80;93.60;;;;;;5042913;28;20041;-80
2021/06/10 03:37:22;;;;;;;13.45;11.43;;;19.80;93.70;;;;;;5053818;28;20033;-80
2021/06/10 03:39:49;;;;;;;15.80;10.38;;;19.80;93.70;;;;;;5039957;28;20040;-80
2021/06/10 03:42:17;;;;;;;14.85;11.25;;;19.80;93.60;;;;;;5043908;28;20083;-80
2021/06/10 03:44:43;;;;;;;13.18;10.52;;;19.80;93.60;;;;;;5044648;28;20051;-80
2021/06/10 03:47:12;;;;;;;12.25;10.68;;;19.80;93.60;;;;;;5041666;28;20124;-79
2021/06/10 03:49:39;;;;;;;11.82;10.27;;;19.80;93.40;;;;;;5082596;28;20175;-81
2021/06/10 03:52:04;;;;;;;14.35;10.07;;;19.80;93.40;;;;;;5039087;28;20036;-82
2021/06/10 03:54:30;;;;;;;12.60;10.32;;;19.80;93.30;;;;;;5079847;28;20037;-82
2021/06/10 03:56:56;;;;;;;17.08;11.63;;;19.80;93.30;;;;;;5047274;28;20128;-80
2021/06/10 03:59:22;;;;;;;12.90;11.50;;;19.80;93.20;;;;;;5049886;28;20049;-80
2021/06/10 04:01:48;;;;;;;14.10;11.20;;;19.80;93.20;;;;;;5044320;28;20033;-81
2021/06/10 04:04:13;;;;;;;12.52;10.38;;;19.80;93.30;;;;;;5047337;28;20044;-81
2021/06/10 04:06:39;;;;;;;15.55;11.70;;;19.80;93.30;;;;;;5045954;28;20029;-81
2021/06/10 04:09:08;;;;;;;14.63;11.48;;;19.80;93.30;;;;;;5039769;28;20109;-81
2021/06/10 04:11:34;;;;;;;15.70;11.38;;;19.80;93.20;;;;;;5071970;28;20064;-82
2021/06/10 04:13:59;;;;;;;16.08;11.27;;;19.80;93.30;;;;;;5044528;28;20079;-82
2021/06/10 04:16:26;;;;;;;13.43;10.60;;;19.70;93.30;;;;;;5044636;28;20285;-80
2021/06/10 04:18:53;;;;;;;15.40;11.40;;;19.70;93.20;;;;;;5051064;28;20634;-80
2021/06/10 04:21:19;;;;;;;15.80;11.13;;;19.70;93.20;;;;;;5076950;28;20604;-82
2021/06/10 04:23:46;;;;;;;17.45;11.73;;;19.70;93.10;;;;;;5042836;28;20041;-82
2021/06/10 04:26:12;;;;;;;12.82;10.38;;;19.70;93.10;;;;;;5044314;28;20044;-81
2021/06/10 04:28:37;;;;;;;13.30;10.70;;;19.60;93.10;;;;;;5039817;28;20080;-81
2021/06/10 04:31:03;;;;;;;13.70;9.13;;;19.70;93.10;;;;;;5040588;28;20123;-81
2021/06/10 04:33:29;;;;;;;13.23;10.05;;;19.60;93.00;;;;;;5048440;28;20125;-81
2021/06/10 04:35:54;;;;;;;14.30;10.65;;;19.70;93.10;;;;;;5044185;28;20135;-81
2021/06/10 04:38:20;;;;;;;11.80;10.25;;;19.60;93.10;;;;;;5039503;28;20037;-81
2021/06/10 04:40:46;;;;;;;13.70;11.02;;;19.60;93.20;;;;;;5067045;28;20036;-81
2021/06/10 04:43:13;;;;;;;15.07;10.73;;;19.60;93.20;;;;;;5057011;28;20126;-82
2021/06/10 04:45:38;;;;;;;14.05;10.43;;;19.60;93.20;;;;;;5042682;28;20064;-81
2021/06/10 04:48:04;;;;;;;13.52;11.02;;;19.50;93.40;;;;;;5048790;28;20037;-81
2021/06/10 04:50:31;;;;;;;14.02;10.38;;;19.40;93.60;;;;;;5052399;28;20067;-81
2021/06/10 04:52:57;;;;;;;12.32;10.55;;;19.50;93.50;;;;;;5054991;28;20087;-81
2021/06/10 04:55:23;;;;;;;15.00;9.65;;;19.50;93.40;;;;;;5041943;28;20151;-81
2021/06/10 04:57:49;;;;;;;13.40;10.38;;;19.60;93.40;;;;;;5077422;28;20107;-82
2021/06/10 05:00:15;;;;;;;13.60;10.25;;;19.60;93.20;;;;;;5043321;28;20057;-83
2021/06/10 05:02:42;;;;;;;13.48;10.27;;;19.70;93.20;;;;;;5048219;28;20052;-83
2021/06/10 05:05:09;;;;;;;12.50;10.25;;;19.70;93.10;;;;;;5073832;28;20036;-83
2021/06/10 05:07:34;;;;;;;13.63;11.05;;;19.70;93.10;;;;;;5039247;28;20465;-82
2021/06/10 05:10:00;;;;;;;13.95;10.55;;;19.70;93.20;;;;;;5042047;28;20054;-83
2021/06/10 05:12:26;;;;;;;11.10;9.32;;;19.80;93.10;;;;;;5050219;28;20041;-83
2021/06/10 05:14:51;;;;;;;12.70;10.35;;;19.80;92.90;;;;;;5073678;28;20120;-81
2021/06/10 05:17:17;;;;;;;12.07;9.80;;;19.80;92.90;;;;;;5047909;28;20052;-82
2021/06/10 05:19:43;;;;;;;11.35;9.48;;;19.80;93.10;;;;;;5042402;28;20313;-82
2021/06/10 05:22:08;;;;;;;18.05;9.88;;;19.80;93.20;;;;;;5045853;28;20049;-82
2021/06/10 05:24:34;;;;;;;15.48;9.50;;;19.90;92.80;;;;;;5047928;28;20044;-80
2021/06/10 05:26:59;;;;;;;11.90;8.25;;;19.90;92.70;;;;;;5064569;28;20037;-79
2021/06/10 05:29:25;;;;;;;14.68;9.45;;;20.00;92.60;;;;;;5042635;28;20689;-80
2021/06/10 05:31:51;;;;;;;15.15;8.93;;;20.00;92.40;;;;;;5053777;28;20041;-80
2021/06/10 05:34:17;;;;;;;12.13;8.65;;;20.00;92.40;;;;;;5052681;28;20148;-79
2021/06/10 05:36:42;;;;;;;10.43;8.10;;;20.00;92.50;;;;;;5049855;28;20028;-80
2021/06/10 05:39:08;;;;;;;10.65;7.70;;;20.10;92.40;;;;;;5041315;28;20123;-81
2021/06/10 05:41:33;;;;;;;10.07;7.18;;;20.10;92.20;;;;;;5067658;28;20644;-81
2021/06/10 05:43:59;;;;;;;9.15;8.25;;;20.20;92.30;;;;;;5063530;28;20435;-80
2021/06/10 05:46:25;;;;;;;12.13;7.85;;;20.20;92.20;;;;;;5054147;28;20044;-80
2021/06/10 05:48:50;;;;;;;9.10;7.15;;;20.20;92.30;;;;;;5055761;28;20040;-80
2021/06/10 05:51:16;;;;;;;11.90;7.63;;;20.20;92.30;;;;;;5062781;28;20033;-81
2021/06/10 05:53:42;;;;;;;8.30;7.03;;;20.20;92.50;;;;;;5071003;28;20040;-81
2021/06/10 05:56:07;;;;;;;8.63;7.03;;;20.20;92.30;;;;;;5060578;28;20578;-82
2021/06/10 05:58:33;;;;;;;9.50;7.50;;;20.30;92.40;;;;;;5055172;28;20123;-82
2021/06/10 06:00:59;;;;;;;9.48;7.47;;;20.40;92.20;;;;;;5041105;28;20045;-82
2021/06/10 06:03:27;;;;;;;11.20;8.02;;;20.50;91.80;;;;;;5046291;28;20041;-81
2021/06/10 06:05:53;;;;;;;10.30;7.85;;;20.50;91.70;;;;;;5044806;28;20203;-82
2021/06/10 06:08:18;;;;;;;14.10;8.52;;;20.60;92.00;;;;;;5036442;28;20045;-84
2021/06/10 06:10:47;;;;;;;12.70;8.70;;;20.70;91.60;;;;;;5046742;28;20411;-81
2021/06/10 06:13:12;;;;;;;10.43;8.73;;;20.80;91.40;;;;;;5048713;28;20029;-82
2021/06/10 06:15:38;;;;;;;11.32;7.88;;;20.90;91.30;;;;;;5044418;28;20124;-82
2021/06/10 06:18:04;;;;;;;9.07;8.07;;;21.00;90.90;;;;;;5081901;28;20401;-82
2021/06/10 06:20:29;;;;;;;10.52;7.95;;;21.20;90.80;;;;;;5046490;28;20045;-83
2021/06/10 06:22:55;;;;;;;12.77;8.57;;;21.30;90.70;;;;;;5046099;28;20760;-82
2021/06/10 06:25:21;;;;;;;9.80;7.10;;;21.40;90.50;;;;;;5043079;28;20041;-82
2021/06/10 06:27:47;;;;;;;10.38;8.15;;;21.50;90.50;;;;;;5038722;28;20043;-81
2021/06/10 06:30:13;;;;;;;10.80;7.20;;;21.60;90.50;;;;;;5041889;28;20044;-82
2021/06/10 06:32:39;;;;;;;10.23;8.13;;;21.70;89.90;;;;;;5041079;28;20281;-82
2021/06/10 06:35:06;;;;;;;11.27;8.35;;;21.80;90.00;;;;;;5046461;28;20127;-81
2021/06/10 06:37:32;;;;;;;10.40;7.38;;;21.90;90.00;;;;;;5046239;28;20044;-81
2021/06/10 06:39:58;;;;;;;13.02;7.22;;;22.00;90.00;;;;;;5043270;28;20102;-82
2021/06/10 06:42:24;;;;;;;9.75;7.88;;;22.10;90.20;;;;;;5054820;28;20045;-82
2021/06/10 06:44:50;;;;;;;9.65;6.45;;;22.20;88.50;;;;;;5048715;28;20045;-82
2021/06/10 06:47:16;;;;;;;10.00;7.65;;;22.30;88.00;;;;;;5042634;28;20120;-82
2021/06/10 06:49:41;;;;;;;9.95;7.28;;;22.30;88.20;;;;;;5040439;28;20534;-82
2021/06/10 06:52:07;;;;;;;10.13;6.90;;;22.40;87.70;;;;;;5047182;28;20340;-82
2021/06/10 06:54:33;;;;;;;7.85;6.82;;;22.50;88.00;;;;;;5076074;28;20423;-82
2021/06/10 06:56:59;;;;;;;8.88;6.90;;;22.60;87.40;;;;;;5040611;28;20668;-81
2021/06/10 06:59:24;;;;;;;10.13;8.10;;;22.60;87.90;;;;;;5069515;28;20032;-81
2021/06/10 07:01:50;;;;;;;10.52;6.35;;;22.70;87.00;;;;;;5040123;28;20096;-81
2021/06/10 07:04:15;;;;;;;7.28;6.15;;;22.80;86.90;;;;;;5037449;28;20100;-82
2021/06/10 07:06:41;;;;;;;8.40;6.90;;;22.90;87.20;;;;;;5053352;28;20042;-83
2021/06/10 07:09:06;;;;;;;7.60;6.53;;;23.10;86.20;;;;;;5069460;28;20055;-82
2021/06/10 07:11:34;;;;;;;9.60;6.03;;;23.30;85.50;;;;;;5048913;28;20033;-82
2021/06/10 07:14:00;;;;;;;7.90;6.45;;;23.40;84.80;;;;;;5058483;28;20033;-82
2021/06/10 07:16:26;;;;;;;10.40;6.55;;;23.40;85.50;;;;;;5044258;28;20108;-84
2021/06/10 07:18:51;;;;;;;12.00;7.57;;;23.50;84.90;;;;;;5045354;28;20058;-82
2021/06/10 07:21:17;;;;;;;8.45;7.05;;;23.60;85.80;;;;;;5046900;28;20041;-82
2021/06/10 07:23:42;;;;;;;8.98;7.50;;;23.80;84.90;;;;;;5039526;28;20765;-82
2021/06/10 07:26:08;;;;;;;9.68;7.03;;;23.80;83.40;;;;;;5040376;28;20120;-80
2021/06/10 07:28:33;;;;;;;14.85;7.15;;;23.90;84.60;;;;;;5039482;28;20049;-82
2021/06/10 07:30:59;;;;;;;9.85;6.05;;;24.00;83.80;;;;;;5040618;28;20055;-83
2021/06/10 07:33:24;;;;;;;6.38;4.95;;;24.10;82.10;;;;;;5039592;28;20179;-90
2021/06/10 07:35:50;;;;;;;9.32;5.05;;;24.20;82.00;;;;;;5044888;28;20048;-89
2021/06/10 07:38:16;;;;;;;7.55;5.65;;;24.30;80.60;;;;;;5042121;28;20038;-88
2021/06/10 07:40:42;;;;;;;6.95;5.47;;;24.40;81.20;;;;;;5079244;28;20045;-86
2021/06/10 07:43:08;;;;;;;7.50;6.25;;;24.40;80.40;;;;;;5070435;28;20158;-81
2021/06/10 07:45:34;;;;;;;6.75;4.43;;;24.50;79.30;;;;;;5041239;28;20045;-87
2021/06/10 07:48:00;;;;;;;5.88;4.53;;;24.40;80.30;;;;;;5039943;28;20037;-83
2021/06/10 07:50:26;;;;;;;8.48;4.47;;;24.50;80.10;;;;;;5040551;28;20332;-81
2021/06/10 07:52:52;;;;;;;5.22;4.70;;;24.50;79.60;;;;;;5039612;28;20131;-82
2021/06/10 07:55:19;;;;;;;6.47;4.93;;;24.70;78.40;;;;;;5032631;28;20069;-81
2021/06/10 07:57:46;;;;;;;5.93;4.90;;;24.80;78.40;;;;;;5042283;28;20041;-81
2021/06/10 08:00:11;;;;;;;8.40;5.93;;;24.90;79.30;;;;;;5047076;28;20041;-84
2021/06/10 08:02:37;;;;;;;8.43;5.05;;;25.00;78.00;;;;;;5044194;28;20275;-82
2021/06/10 08:05:03;;;;;;;8.18;4.75;;;25.10;78.30;;;;;;5040087;28;20048;-84
2021/06/10 08:07:29;;;;;;;10.10;4.95;;;25.20;79.70;;;;;;5050369;28;20040;-81
2021/06/10 08:09:58;;;;;;;6.20;5.03;;;25.30;76.70;;;;;;5062004;28;20098;-81
2021/06/10 08:12:24;;;;;;;6.47;5.53;;;25.30;76.60;;;;;;5073093;28;20589;-81
2021/06/10 08:14:53;;;;;;;8.70;5.40;;;25.40;76.90;;;;;;5052815;28;20041;-80
2021/06/10 08:17:18;;;;;;;8.77;4.93;;;25.50;77.10;;;;;;5053399;28;20083;-80
2021/06/10 08:19:44;;;;;;;6.55;5.10;;;25.60;80.00;;;;;;5042218;28;20068;-80
2021/06/10 08:22:10;;;;;;;6.53;4.78;;;25.80;79.00;;;;;;5049960;28;20391;-80
2021/06/10 08:24:35;;;;;;;5.95;4.35;;;25.80;77.40;;;;;;5057043;28;20116;-80
2021/06/10 08:27:01;;;;;;;5.85;5.25;;;26.00;76.70;;;;;;5055752;28;20041;-79
2021/06/10 08:29:28;;;;;;;5.70;4.55;;;26.00;75.20;;;;;;5055548;28;20041;-80
2021/06/10 08:31:55;;;;;;;6.38;5.13;;;26.10;75.90;;;;;;5056733;28;20033;-81
2021/06/10 08:34:23;;;;;;;5.35;4.20;;;26.20;76.10;;;;;;5059197;28;20063;-80
2021/06/10 08:36:49;;;;;;;5.53;5.03;;;26.30;75.70;;;;;;5055537;28;20102;-80
2021/06/10 08:39:16;;;;;;;9.82;5.38;;;26.40;73.10;;;;;;5055774;28;20064;-80
2021/06/10 08:41:42;;;;;;;6.05;4.38;;;26.50;73.90;;;;;;5056163;28;20040;-81
2021/06/10 08:44:08;;;;;;;7.13;4.30;;;26.60;74.20;;;;;;5055422;28;20070;-80
2021/06/10 08:46:36;;;;;;;5.03;4.00;;;26.70;75.30;;;;;;5054470;28;20300;-80
2021/06/10 08:49:02;;;;;;;4.97;4.00;;;26.80;71.80;;;;;;5056566;28;20123;-81
2021/06/10 08:51:27;;;;;;;6.45;4.45;;;26.90;74.10;;;;;;5054828;28;20135;-81
2021/06/10 08:53:56;;;;;;;6.57;4.38;;;27.00;71.50;;;;;;5054768;28;20041;-81
2021/06/10 08:56:24;;;;;;;5.05;4.00;;;27.00;73.00;;;;;;5056275;28;20056;-81
2021/06/10 08:58:49;;;;;;;4.78;4.28;;;27.20;71.20;;;;;;5057075;28;20036;-80
2021/06/10 09:01:16;;;;;;;10.05;4.00;;;27.20;70.90;;;;;;5061245;28;20367;-80
2021/06/10 09:03:42;;;;;;;6.55;4.07;;;27.30;70.40;;;;;;5065058;28;20361;-81
2021/06/10 09:06:09;;;;;;;6.18;4.65;;;27.30;70.20;;;;;;5057745;28;20052;-81
2021/06/10 09:08:39;;;;;;;8.75;5.07;;;27.40;69.70;;;;;;5060683;28;20040;-80
2021/06/10 09:11:20;;;;;;;5.00;4.50;;;27.40;70.30;;;;;;5061471;28;20064;-80
2021/06/10 09:13:49;;;;;;;8.07;4.75;;;27.40;71.90;;;;;;5036084;28;20037;-81
2021/06/10 09:16:35;;;;;;;6.50;4.80;;;27.40;71.20;;;;;;5038405;28;20051;-81
2021/06/10 09:19:16;;;;;;;4.80;4.25;;;27.50;70.40;;;;;;5053800;28;20049;-81
2021/06/10 09:22:02;;;;;;;4.88;3.20;;;27.50;72.30;;;;;;5047583;28;20404;-81
2021/06/10 09:24:33;;;;;;;3.85;2.78;;;27.70;67.40;;;;;;5051300;28;20081;-81
2021/06/10 09:27:10;;;;;;;4.10;3.40;;;27.70;67.20;;;;;;5049988;28;20448;-81
2021/06/10 09:29:50;;;;;;;4.40;3.78;;;27.80;64.90;;;;;;5046373;28;20036;-81
2021/06/10 09:32:27;;;;;;;4.03;3.70;;;27.80;67.50;;;;;;5095388;28;20144;-83
2021/06/10 09:34:56;;;;;;;3.97;3.67;;;27.90;69.80;;;;;;5038917;28;20029;-81
2021/06/10 09:37:33;;;;;;;4.78;3.83;;;27.90;66.00;;;;;;5034082;28;20088;-81
2021/06/10 09:40:00;;;;;;;6.22;3.92;;;27.90;67.70;;;;;;5047341;28;20723;-82
2021/06/10 09:42:32;;;;;;;5.32;4.28;;;28.10;69.40;;;;;;5055455;28;20044;-81
2021/06/10 09:44:59;;;;;;;3.97;2.97;;;28.20;68.30;;;;;;5087400;28;20043;-82
2021/06/10 09:47:33;;;;;;;6.15;2.53;;;28.30;64.50;;;;;;5084124;28;20049;-82
2021/06/10 09:50:35;;;;;;;4.30;3.90;;;28.40;66.30;;;;;;5042179;28;20060;-82
2021/06/10 09:53:05;;;;;;;;;;;28.40;64.50;;;;;;5053056;28;20037;-81
2021/06/10 09:55:41;;;;;;;5.60;2.90;;;28.40;64.60;;;;;;5035131;28;19917;-81
2021/06/10 09:58:20;;;;;;;3.70;3.00;;;28.40;61.90;;;;;;5034481;28;20391;-82
2021/06/10 10:00:50;;;;;;;3.13;2.78;;;28.40;62.50;;;;;;5035859;28;20037;-82
2021/06/10 10:03:25;;;;;;;4.45;2.90;;;28.30;63.60;;;;;;5034668;28;20050;-83
2021/06/10 10:05:59;;;;;;;5.20;3.17;;;28.50;66.70;;;;;;5036269;28;20404;-81
2021/06/10 10:08:27;;;;;;;7.82;4.15;;;28.60;66.40;;;;;;5054005;28;20416;-82
2021/06/10 10:10:53;;;;;;;6.25;3.92;;;28.80;63.10;;;;;;5039662;28;20215;-81
2021/06/10 10:13:20;;;;;;;4.07;3.25;;;29.00;64.20;;;;;;5035305;28;20427;-81
2021/06/10 10:15:46;;;;;;;3.83;3.33;;;29.10;62.90;;;;;;5035198;28;20030;-82
2021/06/10 10:18:12;;;;;;;3.85;3.10;;;29.10;62.70;;;;;;5035178;28;20404;-83
2021/06/10 10:20:41;;;;;;;3.33;3.03;;;29.10;60.90;;;;;;5051264;28;20033;-82
2021/06/10 10:23:07;;;;;;;3.42;2.95;;;28.90;63.00;;;;;;5035483;28;20037;-81
2021/06/10 10:25:34;;;;;;;4.82;2.75;;;28.80;62.40;;;;;;5034535;28;20444;-81
2021/06/10 10:28:01;;;;;;;4.05;3.10;;;28.70;60.10;;;;;;5036734;28;20115;-81
2021/06/10 10:30:27;;;;;;;3.35;2.67;;;28.50;62.20;;;;;;5042947;28;20052;-82
2021/06/10 10:32:54;;;;;;;4.32;2.67;;;28.40;60.40;;;;;;5067080;28;20065;-88
2021/06/10 10:35:27;;;;;;;5.72;2.78;;;28.30;61.60;;;;;;5068259;28;20037;-89
2021/06/10 10:37:56;;;;;;;3.55;2.88;;;28.20;62.90;;;;;;5041661;28;20366;-87
2021/06/10 10:40:23;;;;;;;3.25;2.95;;;28.10;62.40;;;;;;5054738;28;20040;-88
2021/06/10 10:42:52;;;;;;;5.65;3.05;;;28.20;64.30;;;;;;5055372;28;20087;-88
2021/06/10 10:45:19;;;;;;;4.30;3.10;;;28.30;60.10;;;;;;5055575;28;20072;-88
2021/06/10 10:48:00;;;;;;;5.18;3.40;;;28.40;65.30;;;;;;5055821;28;20041;-80
2021/06/10 10:50:38;;;;;;;3.40;3.10;;;28.50;65.40;;;;;;5050947;28;20045;-81
2021/06/10 10:53:14;;;;;;;6.97;2.95;;;28.70;63.20;;;;;;5052944;28;20071;-81
2021/06/10 10:55:41;;;;;;;3.53;3.08;;;28.70;62.40;;;;;;5048875;28;20052;-82
2021/06/10 10:58:17;;;;;;;3.65;3.13;;;28.90;61.30;;;;;;5047783;28;20111;-81
2021/06/10 11:01:00;;;;;;;4.50;3.00;;;29.00;61.20;;;;;;5046930;28;20041;-81
2021/06/10 11:03:39;;;;;;;3.95;2.85;;;29.10;61.10;;;;;;5074264;28;20572;-82
2021/06/10 11:06:29;;;;;;;2.92;2.30;;;29.20;59.90;;;;;;5086257;28;20074;-81
2021/06/10 11:09:12;;;;;;;2.90;2.53;;;29.40;59.50;;;;;;5053542;28;20094;-81
2021/06/10 11:11:53;;;;;;;3.33;2.97;;;29.50;59.10;;;;;;5053681;28;20047;-81
2021/06/10 11:14:40;;;;;;;4.20;3.38;;;29.70;58.20;;;;;;5052926;28;20052;-81
2021/06/10 11:17:19;;;;;;;3.75;2.83;;;30.00;65.80;;;;;;5086004;28;20107;-81
2021/06/10 11:19:51;;;;;;;4.03;3.30;;;30.10;59.00;;;;;;5053518;28;20110;-80
2021/06/10 11:22:36;;;;;;;3.42;2.70;;;30.20;59.40;;;;;;5053592;28;20072;-80
2021/06/10 11:25:11;;;;;;;7.43;3.42;;;30.10;60.20;;;;;;5055740;28;20045;-80
2021/06/10 11:27:41;;;;;;;3.25;2.90;;;29.90;59.80;;;;;;5053352;28;20037;-80
2021/06/10 11:30:22;;;;;;;3.45;2.33;;;29.40;62.70;;;;;;5053081;28;20040;-80
2021/06/10 11:33:08;;;;;;;3.97;2.20;;;28.90;60.80;;;;;;5053400;28;20146;-79
2021/06/10 11:35:42;;;;;;;2.63;1.80;;;28.30;61.60;;;;;;5053199;28;20078;-79
2021/06/10 11:38:10;;;;;;;7.32;2.40;;;27.90;61.80;;;;;;5053989;28;20033;-79
2021/06/10 11:40:37;;;;;;;3.28;2.78;;;27.50;61.70;;;;;;5053737;28;20032;-79
2021/06/10 11:43:07;;;;;;;2.40;2.20;;;27.30;63.10;;;;;;5054053;28;20436;-81
2021/06/10 11:45:33;;;;;;;6.90;2.55;;;27.30;63.30;;;;;;5052818;28;20037;-81
2021/06/10 11:47:58;;;;;;;3.08;2.33;;;27.30;62.70;;;;;;5054779;28;20040;-82
2021/06/10 11:50:27;;;;;;;2.67;2.47;;;27.30;64.70;;;;;;5053775;28;20101;-82
2021/06/10 11:52:58;;;;;;;3.25;2.55;;;27.50;62.30;;;;;;5052632;28;20037;-82
2021/06/10 11:55:27;;;;;;;3.38;2.67;;;27.60;60.80;;;;;;5052970;28;20036;-81
2021/06/10 11:57:55;;;;;;;3.03;2.75;;;27.50;60.60;;;;;;5056523;28;20400;-82
2021/06/10 12:00:49;;;;;;;4.32;2.70;;;27.40;61.80;;;;;;5091044;28;20075;-81
2021/06/10 12:03:20;;;;;;;6.30;3.08;;;27.40;62.40;;;;;;5053486;28;20416;-79
2021/06/10 12:05:53;;;;;;;3.15;2.85;;;27.40;65.30;;;;;;5053080;28;20131;-80
2021/06/10 12:08:24;;;;;;;3.63;3.33;;;27.60;65.00;;;;;;5048047;28;20046;-79
2021/06/10 12:10:56;;;;;;;5.07;3.33;;;27.80;63.70;;;;;;5050562;28;20627;-79
2021/06/10 12:13:34;;;;;;;4.72;2.90;;;27.90;62.40;;;;;;5056363;28;20041;-82
2021/06/10 12:16:11;;;;;;;7.13;3.78;;;28.00;63.30;;;;;;5048660;28;20041;-79
2021/06/10 12:18:40;;;;;;;5.40;3.53;;;28.00;62.30;;;;;;5037303;28;20098;-80
2021/06/10 12:21:09;;;;;;;4.55;3.35;;;27.90;63.30;;;;;;5051883;28;20059;-80
2021/06/10 12:23:38;;;;;;;5.47;3.33;;;27.80;63.60;;;;;;5056500;28;20048;-79
2021/06/10 12:26:04;;;;;;;6.25;3.53;;;27.70;65.00;;;;;;5057896;28;20405;-80
2021/06/10 12:28:31;;;;;;;3.70;3.30;;;27.80;64.00;;;;;;5057889;28;20152;-82
2021/06/10 12:31:29;;;;;;;3.80;3.42;;;27.80;64.20;;;;;;5046465;28;20049;-81
2021/06/10 12:33:55;;;;;;;3.92;2.92;;;27.90;64.30;;;;;;5043063;28;20346;-82
2021/06/10 12:36:30;;;;;;;6.68;3.08;;;28.10;64.30;;;;;;5073831;28;20063;-82
2021/06/10 12:39:00;;;;;;;5.32;3.80;;;28.30;65.10;;;;;;5070650;28;20063;-82
2021/06/10 12:41:35;;;;;;;4.22;3.83;;;28.60;64.30;;;;;;5056146;28;20041;-80
2021/06/10 12:44:17;;;;;;;5.93;3.85;;;28.80;62.90;;;;;;5056287;28;20052;-79
2021/06/10 12:46:53;;;;;;;4.30;3.42;;;28.90;61.70;;;;;;5055687;28;20033;-82